sensor_id;sensor_type;location;lat;lon;timestamp;P1;durP1;ratioP1;P2;durP2;ratioP2
1993;SDS011;998;49.906;10.908;2022-08-25T00:01:13;13.67;;;8.67;;
1993;SDS011;998;49.906;10.908;2022-08-25T00:03:42;12.20;;;8.27;;
1993;SDS011;998;49.906;10.908;2022-08-25T00:06:09;12.33;;;8.63;;
1993;SDS011;998;49.906;10.908;2022-08-25T00:08:37;10.50;;;8.93;;
1993;SDS011;998;49.906;10.908;2022-08-25T00:11:05;11.37;;;7.97;;
1993;SDS011;998;49.906;10.908;2022-08-25T00:13:33;13.90;;;9.07;;
1993;SDS011;998;49.906;10.908;2022-08-25T00:16:00;15.50;;;8.83;;
1993;SDS011;998;49.906;10.908;2022-08-25T00:18:28;9.50;;;8.33;;
1993;SDS011;998;49.906;10.908;2022-08-25T00:20:55;14.10;;;8.00;;
1993;SDS011;998;49.906;10.908;2022-08-25T00:23:22;11.23;;;8.70;;
1993;SDS011;998;49.906;10.908;2022-08-25T00:25:49;9.13;;;7.87;;
1993;SDS011;998;49.906;10.908;2022-08-25T00:28:16;12.70;;;8.93;;
1993;SDS011;998;49.906;10.908;2022-08-25T00:30:44;10.63;;;8.30;;
1993;SDS011;998;49.906;10.908;2022-08-25T00:33:11;10.33;;;8.40;;
1993;SDS011;998;49.906;10.908;2022-08-25T00:35:40;14.40;;;8.37;;
1993;SDS011;998;49.906;10.908;2022-08-25T00:38:07;11.37;;;8.03;;
1993;SDS011;998;49.906;10.908;2022-08-25T00:40:35;9.70;;;7.40;;
1993;SDS011;998;49.906;10.908;2022-08-25T00:43:03;10.57;;;8.20;;
1993;SDS011;998;49.906;10.908;2022-08-25T00:45:31;10.87;;;8.40;;
1993;SDS011;998;49.906;10.908;2022-08-25T00:47:58;10.87;;;9.03;;
1993;SDS011;998;49.906;10.908;2022-08-25T00:50:25;10.10;;;7.73;;
1993;SDS011;998;49.906;10.908;2022-08-25T00:52:55;11.27;;;8.63;;
1993;SDS011;998;49.906;10.908;2022-08-25T00:55:25;8.60;;;7.20;;
1993;SDS011;998;49.906;10.908;2022-08-25T00:57:56;11.97;;;8.57;;
1993;SDS011;998;49.906;10.908;2022-08-25T01:00:29;10.40;;;8.87;;
1993;SDS011;998;49.906;10.908;2022-08-25T01:02:58;15.60;;;9.57;;
1993;SDS011;998;49.906;10.908;2022-08-25T01:05:26;11.17;;;7.80;;
1993;SDS011;998;49.906;10.908;2022-08-25T01:07:55;14.47;;;8.80;;
1993;SDS011;998;49.906;10.908;2022-08-25T01:10:28;10.87;;;7.90;;
1993;SDS011;998;49.906;10.908;2022-08-25T01:12:57;11.33;;;8.57;;
1993;SDS011;998;49.906;10.908;2022-08-25T01:15:28;10.40;;;8.67;;
1993;SDS011;998;49.906;10.908;2022-08-25T01:17:55;11.33;;;8.37;;
1993;SDS011;998;49.906;10.908;2022-08-25T01:20:24;13.80;;;9.03;;
1993;SDS011;998;49.906;10.908;2022-08-25T01:22:54;9.87;;;8.13;;
1993;SDS011;998;49.906;10.908;2022-08-25T01:25:24;9.50;;;8.27;;
1993;SDS011;998;49.906;10.908;2022-08-25T01:27:56;14.30;;;8.37;;
1993;SDS011;998;49.906;10.908;2022-08-25T01:30:23;11.00;;;9.13;;
1993;SDS011;998;49.906;10.908;2022-08-25T01:32:51;10.77;;;8.37;;
1993;SDS011;998;49.906;10.908;2022-08-25T01:35:18;9.20;;;7.13;;
1993;SDS011;998;49.906;10.908;2022-08-25T01:37:45;10.90;;;8.50;;
1993;SDS011;998;49.906;10.908;2022-08-25T01:40:13;10.27;;;8.73;;
1993;SDS011;998;49.906;10.908;2022-08-25T01:42:41;10.67;;;8.00;;
1993;SDS011;998;49.906;10.908;2022-08-25T01:45:18;11.80;;;8.33;;
1993;SDS011;998;49.906;10.908;2022-08-25T01:47:46;11.57;;;9.40;;
1993;SDS011;998;49.906;10.908;2022-08-25T01:50:12;12.03;;;9.40;;
1993;SDS011;998;49.906;10.908;2022-08-25T01:52:44;14.30;;;8.80;;
1993;SDS011;998;49.906;10.908;2022-08-25T01:55:17;11.33;;;9.13;;
1993;SDS011;998;49.906;10.908;2022-08-25T01:57:44;10.17;;;8.53;;
1993;SDS011;998;49.906;10.908;2022-08-25T02:00:12;11.93;;;8.97;;
1993;SDS011;998;49.906;10.908;2022-08-25T02:02:40;11.67;;;9.40;;
1993;SDS011;998;49.906;10.908;2022-08-25T02:05:07;9.80;;;8.40;;
1993;SDS011;998;49.906;10.908;2022-08-25T02:07:35;10.70;;;9.00;;
1993;SDS011;998;49.906;10.908;2022-08-25T02:10:05;12.47;;;8.67;;
1993;SDS011;998;49.906;10.908;2022-08-25T02:12:34;12.10;;;8.47;;
1993;SDS011;998;49.906;10.908;2022-08-25T02:15:01;10.73;;;8.80;;
1993;SDS011;998;49.906;10.908;2022-08-25T02:17:30;10.47;;;9.10;;
1993;SDS011;998;49.906;10.908;2022-08-25T02:19:57;11.13;;;8.43;;
1993;SDS011;998;49.906;10.908;2022-08-25T02:22:23;12.13;;;9.10;;
1993;SDS011;998;49.906;10.908;2022-08-25T02:24:50;11.93;;;8.80;;
1993;SDS011;998;49.906;10.908;2022-08-25T02:27:17;10.30;;;8.97;;
1993;SDS011;998;49.906;10.908;2022-08-25T02:29:46;13.00;;;9.10;;
1993;SDS011;998;49.906;10.908;2022-08-25T02:32:13;17.10;;;9.80;;
1993;SDS011;998;49.906;10.908;2022-08-25T02:34:40;14.03;;;9.33;;
1993;SDS011;998;49.906;10.908;2022-08-25T02:37:06;12.87;;;9.70;;
1993;SDS011;998;49.906;10.908;2022-08-25T02:39:33;13.37;;;8.80;;
1993;SDS011;998;49.906;10.908;2022-08-25T02:42:00;13.83;;;9.10;;
1993;SDS011;998;49.906;10.908;2022-08-25T02:44:27;15.30;;;9.30;;
1993;SDS011;998;49.906;10.908;2022-08-25T02:46:57;13.30;;;10.00;;
1993;SDS011;998;49.906;10.908;2022-08-25T02:49:24;13.20;;;9.17;;
1993;SDS011;998;49.906;10.908;2022-08-25T02:51:50;11.33;;;8.17;;
1993;SDS011;998;49.906;10.908;2022-08-25T02:54:18;15.47;;;9.70;;
1993;SDS011;998;49.906;10.908;2022-08-25T02:56:47;10.93;;;9.13;;
1993;SDS011;998;49.906;10.908;2022-08-25T02:59:14;10.03;;;8.43;;
1993;SDS011;998;49.906;10.908;2022-08-25T03:01:42;13.60;;;9.53;;
1993;SDS011;998;49.906;10.908;2022-08-25T03:04:10;12.30;;;9.53;;
1993;SDS011;998;49.906;10.908;2022-08-25T03:06:37;12.40;;;9.20;;
1993;SDS011;998;49.906;10.908;2022-08-25T03:09:04;12.17;;;8.67;;
1993;SDS011;998;49.906;10.908;2022-08-25T03:11:31;13.80;;;10.00;;
1993;SDS011;998;49.906;10.908;2022-08-25T03:13:58;12.37;;;8.57;;
1993;SDS011;998;49.906;10.908;2022-08-25T03:16:25;14.40;;;9.47;;
1993;SDS011;998;49.906;10.908;2022-08-25T03:18:52;12.30;;;9.50;;
1993;SDS011;998;49.906;10.908;2022-08-25T03:21:20;12.93;;;9.30;;
1993;SDS011;998;49.906;10.908;2022-08-25T03:23:49;14.03;;;9.03;;
1993;SDS011;998;49.906;10.908;2022-08-25T03:26:16;13.40;;;9.97;;
1993;SDS011;998;49.906;10.908;2022-08-25T03:29:15;11.63;;;9.00;;
1993;SDS011;998;49.906;10.908;2022-08-25T03:31:42;11.93;;;9.50;;
1993;SDS011;998;49.906;10.908;2022-08-25T03:34:09;12.83;;;9.63;;
1993;SDS011;998;49.906;10.908;2022-08-25T03:36:38;13.60;;;10.33;;
1993;SDS011;998;49.906;10.908;2022-08-25T03:39:05;12.37;;;9.17;;
1993;SDS011;998;49.906;10.908;2022-08-25T03:41:33;12.57;;;9.93;;
1993;SDS011;998;49.906;10.908;2022-08-25T03:44:01;13.90;;;10.30;;
1993;SDS011;998;49.906;10.908;2022-08-25T03:46:29;15.67;;;10.30;;
1993;SDS011;998;49.906;10.908;2022-08-25T03:48:58;12.13;;;9.70;;
1993;SDS011;998;49.906;10.908;2022-08-25T03:51:28;10.43;;;9.27;;
1993;SDS011;998;49.906;10.908;2022-08-25T03:53:58;13.37;;;7.97;;
1993;SDS011;998;49.906;10.908;2022-08-25T03:56:26;15.97;;;9.67;;
1993;SDS011;998;49.906;10.908;2022-08-25T03:58:53;10.60;;;8.93;;
1993;SDS011;998;49.906;10.908;2022-08-25T04:01:20;12.00;;;10.07;;
1993;SDS011;998;49.906;10.908;2022-08-25T04:03:47;12.10;;;10.00;;
1993;SDS011;998;49.906;10.908;2022-08-25T04:06:16;11.37;;;10.03;;
1993;SDS011;998;49.906;10.908;2022-08-25T04:08:43;11.00;;;9.17;;
1993;SDS011;998;49.906;10.908;2022-08-25T04:11:12;12.50;;;10.17;;
1993;SDS011;998;49.906;10.908;2022-08-25T04:13:42;13.70;;;10.40;;
1993;SDS011;998;49.906;10.908;2022-08-25T04:16:10;14.63;;;11.20;;
1993;SDS011;998;49.906;10.908;2022-08-25T04:18:38;15.10;;;10.20;;
1993;SDS011;998;49.906;10.908;2022-08-25T04:21:05;12.70;;;10.07;;
1993;SDS011;998;49.906;10.908;2022-08-25T04:23:34;12.40;;;10.00;;
1993;SDS011;998;49.906;10.908;2022-08-25T04:26:06;17.10;;;9.63;;
1993;SDS011;998;49.906;10.908;2022-08-25T04:28:35;11.83;;;8.90;;
1993;SDS011;998;49.906;10.908;2022-08-25T04:31:04;12.27;;;10.20;;
1993;SDS011;998;49.906;10.908;2022-08-25T04:33:32;13.13;;;9.90;;
1993;SDS011;998;49.906;10.908;2022-08-25T04:35:59;13.30;;;10.40;;
1993;SDS011;998;49.906;10.908;2022-08-25T04:38:25;15.17;;;9.77;;
1993;SDS011;998;49.906;10.908;2022-08-25T04:40:56;14.27;;;9.87;;
1993;SDS011;998;49.906;10.908;2022-08-25T04:43:23;13.10;;;11.13;;
1993;SDS011;998;49.906;10.908;2022-08-25T04:45:52;14.07;;;11.20;;
1993;SDS011;998;49.906;10.908;2022-08-25T04:48:19;12.40;;;10.70;;
1993;SDS011;998;49.906;10.908;2022-08-25T04:50:47;13.93;;;12.37;;
1993;SDS011;998;49.906;10.908;2022-08-25T04:53:14;13.33;;;10.63;;
1993;SDS011;998;49.906;10.908;2022-08-25T04:55:41;11.90;;;9.50;;
1993;SDS011;998;49.906;10.908;2022-08-25T04:58:09;16.50;;;11.17;;
1993;SDS011;998;49.906;10.908;2022-08-25T05:00:37;12.73;;;10.70;;
1993;SDS011;998;49.906;10.908;2022-08-25T05:03:05;15.47;;;12.13;;
1993;SDS011;998;49.906;10.908;2022-08-25T05:05:34;14.20;;;12.10;;
1993;SDS011;998;49.906;10.908;2022-08-25T05:08:02;15.23;;;10.70;;
1993;SDS011;998;49.906;10.908;2022-08-25T05:10:30;14.33;;;10.60;;
1993;SDS011;998;49.906;10.908;2022-08-25T05:12:57;13.40;;;12.00;;
1993;SDS011;998;49.906;10.908;2022-08-25T05:15:24;15.93;;;10.50;;
1993;SDS011;998;49.906;10.908;2022-08-25T05:18:10;12.50;;;11.00;;
1993;SDS011;998;49.906;10.908;2022-08-25T05:20:37;12.70;;;10.37;;
1993;SDS011;998;49.906;10.908;2022-08-25T05:23:04;17.07;;;11.73;;
1993;SDS011;998;49.906;10.908;2022-08-25T05:25:31;18.40;;;10.60;;
1993;SDS011;998;49.906;10.908;2022-08-25T05:27:58;14.30;;;12.20;;
1993;SDS011;998;49.906;10.908;2022-08-25T05:30:25;17.30;;;11.00;;
1993;SDS011;998;49.906;10.908;2022-08-25T05:32:52;15.40;;;11.83;;
1993;SDS011;998;49.906;10.908;2022-08-25T05:35:21;15.90;;;12.10;;
1993;SDS011;998;49.906;10.908;2022-08-25T05:37:48;16.20;;;12.00;;
1993;SDS011;998;49.906;10.908;2022-08-25T05:40:15;17.00;;;11.90;;
1993;SDS011;998;49.906;10.908;2022-08-25T05:42:41;16.57;;;11.17;;
1993;SDS011;998;49.906;10.908;2022-08-25T05:45:09;17.60;;;11.77;;
1993;SDS011;998;49.906;10.908;2022-08-25T05:47:36;17.90;;;11.80;;
1993;SDS011;998;49.906;10.908;2022-08-25T05:50:03;15.37;;;10.93;;
1993;SDS011;998;49.906;10.908;2022-08-25T05:52:32;15.07;;;11.60;;
1993;SDS011;998;49.906;10.908;2022-08-25T05:54:59;16.30;;;11.47;;
1993;SDS011;998;49.906;10.908;2022-08-25T05:57:26;16.57;;;11.43;;
1993;SDS011;998;49.906;10.908;2022-08-25T05:59:53;17.87;;;13.03;;
1993;SDS011;998;49.906;10.908;2022-08-25T06:02:19;16.60;;;12.00;;
1993;SDS011;998;49.906;10.908;2022-08-25T06:05:04;16.87;;;12.57;;
1993;SDS011;998;49.906;10.908;2022-08-25T06:07:32;17.03;;;12.53;;
1993;SDS011;998;49.906;10.908;2022-08-25T06:10:00;17.60;;;13.30;;
1993;SDS011;998;49.906;10.908;2022-08-25T06:12:27;18.60;;;11.77;;
1993;SDS011;998;49.906;10.908;2022-08-25T06:14:56;16.53;;;12.40;;
1993;SDS011;998;49.906;10.908;2022-08-25T06:17:23;14.63;;;11.50;;
1993;SDS011;998;49.906;10.908;2022-08-25T06:19:50;15.80;;;12.70;;
1993;SDS011;998;49.906;10.908;2022-08-25T06:22:18;21.97;;;14.00;;
1993;SDS011;998;49.906;10.908;2022-08-25T06:24:47;18.30;;;13.07;;
1993;SDS011;998;49.906;10.908;2022-08-25T06:27:14;14.27;;;11.17;;
1993;SDS011;998;49.906;10.908;2022-08-25T06:32:09;13.90;;;11.40;;
1993;SDS011;998;49.906;10.908;2022-08-25T06:34:36;15.30;;;12.37;;
1993;SDS011;998;49.906;10.908;2022-08-25T06:37:03;17.33;;;12.40;;
1993;SDS011;998;49.906;10.908;2022-08-25T06:39:30;14.80;;;12.73;;
1993;SDS011;998;49.906;10.908;2022-08-25T06:41:58;16.53;;;11.90;;
1993;SDS011;998;49.906;10.908;2022-08-25T06:44:25;15.73;;;11.40;;
1993;SDS011;998;49.906;10.908;2022-08-25T06:46:52;18.70;;;12.50;;
1993;SDS011;998;49.906;10.908;2022-08-25T06:49:19;17.97;;;12.00;;
1993;SDS011;998;49.906;10.908;2022-08-25T06:51:47;15.83;;;11.43;;
1993;SDS011;998;49.906;10.908;2022-08-25T06:54:14;14.13;;;11.07;;
1993;SDS011;998;49.906;10.908;2022-08-25T06:56:41;15.73;;;11.97;;
1993;SDS011;998;49.906;10.908;2022-08-25T06:59:09;19.40;;;12.13;;
1993;SDS011;998;49.906;10.908;2022-08-25T07:01:36;18.47;;;12.87;;
1993;SDS011;998;49.906;10.908;2022-08-25T07:04:06;19.63;;;12.00;;
1993;SDS011;998;49.906;10.908;2022-08-25T07:06:39;17.07;;;13.30;;
1993;SDS011;998;49.906;10.908;2022-08-25T07:09:08;15.30;;;12.90;;
1993;SDS011;998;49.906;10.908;2022-08-25T07:11:36;14.83;;;11.43;;
1993;SDS011;998;49.906;10.908;2022-08-25T07:14:04;18.70;;;12.37;;
1993;SDS011;998;49.906;10.908;2022-08-25T07:16:34;16.73;;;11.90;;
1993;SDS011;998;49.906;10.908;2022-08-25T07:19:01;15.40;;;12.93;;
1993;SDS011;998;49.906;10.908;2022-08-25T07:21:30;14.47;;;11.50;;
1993;SDS011;998;49.906;10.908;2022-08-25T07:24:03;12.27;;;10.83;;
1993;SDS011;998;49.906;10.908;2022-08-25T07:26:32;11.30;;;10.00;;
1993;SDS011;998;49.906;10.908;2022-08-25T07:29:00;19.40;;;10.80;;
1993;SDS011;998;49.906;10.908;2022-08-25T07:31:35;11.63;;;9.73;;
1993;SDS011;998;49.906;10.908;2022-08-25T07:34:02;15.03;;;10.80;;
1993;SDS011;998;49.906;10.908;2022-08-25T07:36:49;11.20;;;9.97;;
1993;SDS011;998;49.906;10.908;2022-08-25T07:39:18;13.30;;;11.90;;
1993;SDS011;998;49.906;10.908;2022-08-25T07:41:52;10.87;;;9.70;;
1993;SDS011;998;49.906;10.908;2022-08-25T07:44:30;16.40;;;11.97;;
1993;SDS011;998;49.906;10.908;2022-08-25T07:46:58;12.60;;;11.27;;
1993;SDS011;998;49.906;10.908;2022-08-25T07:49:25;13.67;;;9.80;;
1993;SDS011;998;49.906;10.908;2022-08-25T07:51:59;11.50;;;9.40;;
1993;SDS011;998;49.906;10.908;2022-08-25T07:54:26;10.60;;;9.50;;
1993;SDS011;998;49.906;10.908;2022-08-25T07:56:55;13.00;;;9.53;;
1993;SDS011;998;49.906;10.908;2022-08-25T07:59:26;9.87;;;8.77;;
1993;SDS011;998;49.906;10.908;2022-08-25T08:02:07;10.20;;;8.87;;
1993;SDS011;998;49.906;10.908;2022-08-25T08:04:44;14.43;;;9.87;;
1993;SDS011;998;49.906;10.908;2022-08-25T08:07:14;10.23;;;7.97;;
1993;SDS011;998;49.906;10.908;2022-08-25T08:09:41;15.07;;;8.13;;
1993;SDS011;998;49.906;10.908;2022-08-25T08:12:12;15.53;;;10.03;;
1993;SDS011;998;49.906;10.908;2022-08-25T08:14:44;17.57;;;10.43;;
1993;SDS011;998;49.906;10.908;2022-08-25T08:17:15;12.80;;;9.70;;
1993;SDS011;998;49.906;10.908;2022-08-25T08:19:42;10.23;;;8.57;;
1993;SDS011;998;49.906;10.908;2022-08-25T08:22:09;10.37;;;8.43;;
1993;SDS011;998;49.906;10.908;2022-08-25T08:24:39;11.63;;;9.00;;
1993;SDS011;998;49.906;10.908;2022-08-25T08:27:08;13.23;;;9.00;;
1993;SDS011;998;49.906;10.908;2022-08-25T08:29:36;11.00;;;9.37;;
1993;SDS011;998;49.906;10.908;2022-08-25T08:32:04;13.20;;;9.30;;
1993;SDS011;998;49.906;10.908;2022-08-25T08:34:34;15.47;;;9.63;;
1993;SDS011;998;49.906;10.908;2022-08-25T08:37:02;13.30;;;8.97;;
1993;SDS011;998;49.906;10.908;2022-08-25T08:39:29;11.60;;;8.97;;
1993;SDS011;998;49.906;10.908;2022-08-25T08:42:07;10.60;;;8.00;;
1993;SDS011;998;49.906;10.908;2022-08-25T08:44:44;12.37;;;8.00;;
1993;SDS011;998;49.906;10.908;2022-08-25T08:47:39;15.60;;;8.80;;
1993;SDS011;998;49.906;10.908;2022-08-25T08:50:22;14.33;;;10.00;;
1993;SDS011;998;49.906;10.908;2022-08-25T08:52:55;9.93;;;8.67;;
1993;SDS011;998;49.906;10.908;2022-08-25T08:55:27;8.93;;;7.30;;
1993;SDS011;998;49.906;10.908;2022-08-25T08:57:56;10.03;;;8.17;;
1993;SDS011;998;49.906;10.908;2022-08-25T09:00:25;9.27;;;8.27;;
1993;SDS011;998;49.906;10.908;2022-08-25T09:02:55;9.80;;;7.50;;
1993;SDS011;998;49.906;10.908;2022-08-25T09:05:27;13.00;;;8.37;;
1993;SDS011;998;49.906;10.908;2022-08-25T09:07:57;9.37;;;8.47;;
1993;SDS011;998;49.906;10.908;2022-08-25T09:10:43;8.93;;;7.67;;
1993;SDS011;998;49.906;10.908;2022-08-25T09:13:22;10.10;;;7.30;;
1993;SDS011;998;49.906;10.908;2022-08-25T09:16:00;10.83;;;6.83;;
1993;SDS011;998;49.906;10.908;2022-08-25T09:18:50;10.50;;;7.80;;
1993;SDS011;998;49.906;10.908;2022-08-25T09:21:24;10.80;;;7.33;;
1993;SDS011;998;49.906;10.908;2022-08-25T09:26:54;11.30;;;8.50;;
1993;SDS011;998;49.906;10.908;2022-08-25T09:29:53;10.93;;;7.10;;
1993;SDS011;998;49.906;10.908;2022-08-25T09:32:28;11.77;;;8.00;;
1993;SDS011;998;49.906;10.908;2022-08-25T09:35:01;9.50;;;7.70;;
1993;SDS011;998;49.906;10.908;2022-08-25T09:37:31;8.63;;;7.70;;
1993;SDS011;998;49.906;10.908;2022-08-25T09:39:58;9.97;;;8.43;;
1993;SDS011;998;49.906;10.908;2022-08-25T09:45:13;13.17;;;8.60;;
1993;SDS011;998;49.906;10.908;2022-08-25T09:47:41;10.50;;;7.90;;
1993;SDS011;998;49.906;10.908;2022-08-25T09:50:13;9.87;;;7.33;;
1993;SDS011;998;49.906;10.908;2022-08-25T09:52:43;10.17;;;8.10;;
1993;SDS011;998;49.906;10.908;2022-08-25T09:55:21;9.80;;;8.00;;
1993;SDS011;998;49.906;10.908;2022-08-25T09:57:52;9.80;;;8.07;;
1993;SDS011;998;49.906;10.908;2022-08-25T10:00:22;9.53;;;8.20;;
1993;SDS011;998;49.906;10.908;2022-08-25T10:03:06;9.93;;;7.00;;
1993;SDS011;998;49.906;10.908;2022-08-25T10:05:37;8.63;;;7.07;;
1993;SDS011;998;49.906;10.908;2022-08-25T10:08:23;8.07;;;6.03;;
1993;SDS011;998;49.906;10.908;2022-08-25T10:10:55;10.17;;;7.03;;
1993;SDS011;998;49.906;10.908;2022-08-25T10:13:31;8.40;;;6.27;;
1993;SDS011;998;49.906;10.908;2022-08-25T10:16:05;8.47;;;7.00;;
1993;SDS011;998;49.906;10.908;2022-08-25T10:18:34;8.47;;;7.57;;
1993;SDS011;998;49.906;10.908;2022-08-25T10:21:02;12.83;;;8.00;;
1993;SDS011;998;49.906;10.908;2022-08-25T10:23:34;12.57;;;7.53;;
1993;SDS011;998;49.906;10.908;2022-08-25T10:26:04;8.97;;;7.00;;
1993;SDS011;998;49.906;10.908;2022-08-25T10:28:37;7.60;;;6.77;;
1993;SDS011;998;49.906;10.908;2022-08-25T10:31:16;8.40;;;6.20;;
1993;SDS011;998;49.906;10.908;2022-08-25T10:33:51;9.60;;;7.27;;
1993;SDS011;998;49.906;10.908;2022-08-25T10:36:30;8.60;;;7.10;;
1993;SDS011;998;49.906;10.908;2022-08-25T10:39:10;7.60;;;6.53;;
1993;SDS011;998;49.906;10.908;2022-08-25T10:41:49;6.40;;;5.57;;
1993;SDS011;998;49.906;10.908;2022-08-25T10:44:23;14.73;;;5.60;;
1993;SDS011;998;49.906;10.908;2022-08-25T10:47:33;7.20;;;5.90;;
1993;SDS011;998;49.906;10.908;2022-08-25T10:50:22;7.37;;;5.57;;
1993;SDS011;998;49.906;10.908;2022-08-25T10:56:00;8.03;;;5.80;;
1993;SDS011;998;49.906;10.908;2022-08-25T10:58:38;7.63;;;5.33;;
1993;SDS011;998;49.906;10.908;2022-08-25T11:01:25;7.20;;;5.60;;
1993;SDS011;998;49.906;10.908;2022-08-25T11:04:01;6.63;;;5.13;;
1993;SDS011;998;49.906;10.908;2022-08-25T11:06:35;10.13;;;6.50;;
1993;SDS011;998;49.906;10.908;2022-08-25T11:09:06;10.83;;;6.50;;
1993;SDS011;998;49.906;10.908;2022-08-25T11:11:39;8.60;;;6.17;;
1993;SDS011;998;49.906;10.908;2022-08-25T11:14:13;8.50;;;5.77;;
1993;SDS011;998;49.906;10.908;2022-08-25T11:16:55;9.27;;;6.10;;
1993;SDS011;998;49.906;10.908;2022-08-25T11:19:28;11.23;;;6.20;;
1993;SDS011;998;49.906;10.908;2022-08-25T11:22:00;6.90;;;6.20;;
1993;SDS011;998;49.906;10.908;2022-08-25T11:24:40;7.23;;;5.90;;
1993;SDS011;998;49.906;10.908;2022-08-25T11:27:16;11.97;;;6.23;;
1993;SDS011;998;49.906;10.908;2022-08-25T11:29:50;9.33;;;7.07;;
1993;SDS011;998;49.906;10.908;2022-08-25T11:32:25;8.50;;;6.27;;
1993;SDS011;998;49.906;10.908;2022-08-25T11:34:58;8.63;;;5.73;;
1993;SDS011;998;49.906;10.908;2022-08-25T11:37:26;6.60;;;5.03;;
1993;SDS011;998;49.906;10.908;2022-08-25T11:40:03;9.00;;;5.73;;
1993;SDS011;998;49.906;10.908;2022-08-25T11:42:46;7.53;;;5.77;;
1993;SDS011;998;49.906;10.908;2022-08-25T11:45:33;7.00;;;5.47;;
1993;SDS011;998;49.906;10.908;2022-08-25T11:48:13;11.83;;;6.23;;
1993;SDS011;998;49.906;10.908;2022-08-25T11:50:55;8.43;;;5.73;;
1993;SDS011;998;49.906;10.908;2022-08-25T11:53:26;11.93;;;6.20;;
1993;SDS011;998;49.906;10.908;2022-08-25T11:55:55;8.57;;;6.10;;
1993;SDS011;998;49.906;10.908;2022-08-25T12:04:35;9.80;;;6.17;;
1993;SDS011;998;49.906;10.908;2022-08-25T12:10:08;13.10;;;6.00;;
1993;SDS011;998;49.906;10.908;2022-08-25T12:12:39;8.97;;;7.03;;
1993;SDS011;998;49.906;10.908;2022-08-25T12:15:56;7.53;;;5.90;;
1993;SDS011;998;49.906;10.908;2022-08-25T12:18:41;9.37;;;6.63;;
1993;SDS011;998;49.906;10.908;2022-08-25T12:24:03;12.43;;;6.13;;
1993;SDS011;998;49.906;10.908;2022-08-25T12:26:39;10.83;;;6.50;;
1993;SDS011;998;49.906;10.908;2022-08-25T12:29:12;6.80;;;5.77;;
1993;SDS011;998;49.906;10.908;2022-08-25T12:31:49;8.03;;;6.30;;
1993;SDS011;998;49.906;10.908;2022-08-25T12:34:57;10.13;;;6.10;;
1993;SDS011;998;49.906;10.908;2022-08-25T12:37:52;6.47;;;5.87;;
1993;SDS011;998;49.906;10.908;2022-08-25T12:40:36;8.10;;;6.50;;
1993;SDS011;998;49.906;10.908;2022-08-25T12:45:52;7.70;;;5.87;;
1993;SDS011;998;49.906;10.908;2022-08-25T12:48:52;8.77;;;6.70;;
1993;SDS011;998;49.906;10.908;2022-08-25T12:51:22;8.50;;;6.57;;
1993;SDS011;998;49.906;10.908;2022-08-25T12:53:56;7.23;;;5.60;;
1993;SDS011;998;49.906;10.908;2022-08-25T12:56:36;6.53;;;5.83;;
1993;SDS011;998;49.906;10.908;2022-08-25T12:59:10;9.47;;;6.30;;
1993;SDS011;998;49.906;10.908;2022-08-25T13:01:54;6.80;;;5.17;;
1993;SDS011;998;49.906;10.908;2022-08-25T13:04:43;8.73;;;5.20;;
1993;SDS011;998;49.906;10.908;2022-08-25T13:07:40;9.63;;;5.30;;
1993;SDS011;998;49.906;10.908;2022-08-25T13:10:36;7.00;;;5.57;;
1993;SDS011;998;49.906;10.908;2022-08-25T13:13:15;6.97;;;4.70;;
1993;SDS011;998;49.906;10.908;2022-08-25T13:15:59;6.10;;;5.50;;
1993;SDS011;998;49.906;10.908;2022-08-25T13:18:28;6.97;;;5.53;;
1993;SDS011;998;49.906;10.908;2022-08-25T13:21:05;6.93;;;6.20;;
1993;SDS011;998;49.906;10.908;2022-08-25T13:23:42;9.50;;;5.40;;
1993;SDS011;998;49.906;10.908;2022-08-25T13:26:14;6.47;;;4.87;;
1993;SDS011;998;49.906;10.908;2022-08-25T13:28:50;6.90;;;5.10;;
1993;SDS011;998;49.906;10.908;2022-08-25T13:31:29;14.70;;;6.90;;
1993;SDS011;998;49.906;10.908;2022-08-25T13:36:46;8.13;;;6.50;;
1993;SDS011;998;49.906;10.908;2022-08-25T13:39:42;7.70;;;6.53;;
1993;SDS011;998;49.906;10.908;2022-08-25T13:42:12;8.70;;;6.73;;
1993;SDS011;998;49.906;10.908;2022-08-25T13:44:41;10.13;;;7.03;;
1993;SDS011;998;49.906;10.908;2022-08-25T13:47:10;11.83;;;6.30;;
1993;SDS011;998;49.906;10.908;2022-08-25T13:49:42;7.33;;;6.43;;
1993;SDS011;998;49.906;10.908;2022-08-25T13:52:23;8.00;;;7.17;;
1993;SDS011;998;49.906;10.908;2022-08-25T13:54:56;10.77;;;7.53;;
1993;SDS011;998;49.906;10.908;2022-08-25T13:57:34;10.40;;;7.13;;
1993;SDS011;998;49.906;10.908;2022-08-25T14:00:10;8.10;;;6.30;;
1993;SDS011;998;49.906;10.908;2022-08-25T14:02:39;11.57;;;6.63;;
1993;SDS011;998;49.906;10.908;2022-08-25T14:05:29;8.87;;;6.10;;
1993;SDS011;998;49.906;10.908;2022-08-25T14:13:57;11.23;;;7.80;;
1993;SDS011;998;49.906;10.908;2022-08-25T14:16:33;10.33;;;5.80;;
1993;SDS011;998;49.906;10.908;2022-08-25T14:19:04;9.50;;;5.60;;
1993;SDS011;998;49.906;10.908;2022-08-25T14:21:31;11.53;;;5.50;;
1993;SDS011;998;49.906;10.908;2022-08-25T14:24:03;9.47;;;6.43;;
1993;SDS011;998;49.906;10.908;2022-08-25T14:26:30;9.47;;;5.53;;
1993;SDS011;998;49.906;10.908;2022-08-25T14:29:02;8.53;;;6.23;;
1993;SDS011;998;49.906;10.908;2022-08-25T14:31:30;7.30;;;6.10;;
1993;SDS011;998;49.906;10.908;2022-08-25T14:34:03;7.77;;;5.97;;
1993;SDS011;998;49.906;10.908;2022-08-25T14:36:33;8.20;;;5.93;;
1993;SDS011;998;49.906;10.908;2022-08-25T14:39:00;6.60;;;5.90;;
1993;SDS011;998;49.906;10.908;2022-08-25T14:41:31;7.80;;;5.70;;
1993;SDS011;998;49.906;10.908;2022-08-25T14:44:01;10.60;;;6.10;;
1993;SDS011;998;49.906;10.908;2022-08-25T14:46:31;7.33;;;6.23;;
1993;SDS011;998;49.906;10.908;2022-08-25T14:49:00;8.20;;;6.23;;
1993;SDS011;998;49.906;10.908;2022-08-25T14:51:30;7.63;;;6.60;;
1993;SDS011;998;49.906;10.908;2022-08-25T14:53:59;6.80;;;5.63;;
1993;SDS011;998;49.906;10.908;2022-08-25T14:56:28;7.67;;;6.13;;
1993;SDS011;998;49.906;10.908;2022-08-25T14:59:00;9.67;;;6.87;;
1993;SDS011;998;49.906;10.908;2022-08-25T15:01:27;7.50;;;6.50;;
1993;SDS011;998;49.906;10.908;2022-08-25T15:03:56;8.30;;;6.10;;
1993;SDS011;998;49.906;10.908;2022-08-25T15:06:26;7.53;;;6.70;;
1993;SDS011;998;49.906;10.908;2022-08-25T15:08:56;7.10;;;5.77;;
1993;SDS011;998;49.906;10.908;2022-08-25T15:11:40;7.53;;;6.13;;
1993;SDS011;998;49.906;10.908;2022-08-25T15:14:09;8.23;;;6.53;;
1993;SDS011;998;49.906;10.908;2022-08-25T15:16:41;8.07;;;6.30;;
1993;SDS011;998;49.906;10.908;2022-08-25T15:19:12;12.30;;;9.83;;
1993;SDS011;998;49.906;10.908;2022-08-25T15:21:43;8.97;;;6.87;;
1993;SDS011;998;49.906;10.908;2022-08-25T15:24:14;6.53;;;5.83;;
1993;SDS011;998;49.906;10.908;2022-08-25T15:26:46;7.60;;;6.80;;
1993;SDS011;998;49.906;10.908;2022-08-25T15:29:19;7.97;;;6.50;;
1993;SDS011;998;49.906;10.908;2022-08-25T15:31:47;13.70;;;6.60;;
1993;SDS011;998;49.906;10.908;2022-08-25T15:34:14;8.07;;;6.90;;
1993;SDS011;998;49.906;10.908;2022-08-25T15:36:41;8.23;;;6.47;;
1993;SDS011;998;49.906;10.908;2022-08-25T15:39:09;8.23;;;6.27;;
1993;SDS011;998;49.906;10.908;2022-08-25T15:41:37;7.93;;;6.67;;
1993;SDS011;998;49.906;10.908;2022-08-25T15:44:07;10.20;;;7.37;;
1993;SDS011;998;49.906;10.908;2022-08-25T15:46:35;6.87;;;6.17;;
1993;SDS011;998;49.906;10.908;2022-08-25T15:49:03;10.40;;;6.90;;
1993;SDS011;998;49.906;10.908;2022-08-25T16:36:03;9.23;;;6.77;;
1993;SDS011;998;49.906;10.908;2022-08-25T16:38:38;9.67;;;7.60;;
1993;SDS011;998;49.906;10.908;2022-08-25T16:41:12;8.63;;;6.67;;
1993;SDS011;998;49.906;10.908;2022-08-25T16:43:40;8.00;;;6.60;;
1993;SDS011;998;49.906;10.908;2022-08-25T16:46:09;7.77;;;6.97;;
1993;SDS011;998;49.906;10.908;2022-08-25T16:48:38;9.83;;;7.10;;